sensor_id;sensor_type;location;lat;lon;timestamp;P1;durP1;ratioP1;P2;durP2;ratioP2
34767;SDS011;21755;43.608;1.236;2022-08-21T00:01:10;0.98;;;0.63;;
34767;SDS011;21755;43.608;1.236;2022-08-21T00:03:40;0.73;;;0.70;;
34767;SDS011;21755;43.608;1.236;2022-08-21T00:06:06;1.00;;;0.70;;
34767;SDS011;21755;43.608;1.236;2022-08-21T00:08:32;0.85;;;0.70;;
34767;SDS011;21755;43.608;1.236;2022-08-21T00:10:58;1.65;;;0.63;;
34767;SDS011;21755;43.608;1.236;2022-08-21T00:13:24;0.85;;;0.73;;
34767;SDS011;21755;43.608;1.236;2022-08-21T00:15:50;0.77;;;0.70;;
34767;SDS011;21755;43.608;1.236;2022-08-21T00:18:16;2.50;;;0.85;;
34767;SDS011;21755;43.608;1.236;2022-08-21T00:20:43;4.25;;;0.82;;
34767;SDS011;21755;43.608;1.236;2022-08-21T00:23:09;3.13;;;0.80;;
34767;SDS011;21755;43.608;1.236;2022-08-21T00:25:36;1.15;;;1.05;;
34767;SDS011;21755;43.608;1.236;2022-08-21T00:28:03;1.73;;;0.95;;
34767;SDS011;21755;43.608;1.236;2022-08-21T00:30:32;0.73;;;0.73;;
34767;SDS011;21755;43.608;1.236;2022-08-21T00:32:58;1.48;;;0.90;;
34767;SDS011;21755;43.608;1.236;2022-08-21T00:35:27;0.88;;;0.75;;
34767;SDS011;21755;43.608;1.236;2022-08-21T00:37:55;1.20;;;0.90;;
34767;SDS011;21755;43.608;1.236;2022-08-21T00:40:31;1.42;;;0.75;;
34767;SDS011;21755;43.608;1.236;2022-08-21T00:43:02;3.05;;;0.85;;
34767;SDS011;21755;43.608;1.236;2022-08-21T00:45:29;0.70;;;0.70;;
34767;SDS011;21755;43.608;1.236;2022-08-21T00:47:56;1.02;;;0.80;;
34767;SDS011;21755;43.608;1.236;2022-08-21T00:50:23;0.80;;;0.73;;
34767;SDS011;21755;43.608;1.236;2022-08-21T00:52:54;0.88;;;0.70;;
34767;SDS011;21755;43.608;1.236;2022-08-21T00:55:22;2.50;;;1.00;;
34767;SDS011;21755;43.608;1.236;2022-08-21T00:57:51;1.75;;;0.70;;
34767;SDS011;21755;43.608;1.236;2022-08-21T01:00:22;2.63;;;1.00;;
34767;SDS011;21755;43.608;1.236;2022-08-21T01:02:56;2.15;;;1.00;;
34767;SDS011;21755;43.608;1.236;2022-08-21T01:05:22;3.85;;;0.80;;
34767;SDS011;21755;43.608;1.236;2022-08-21T01:07:48;5.93;;;0.95;;
34767;SDS011;21755;43.608;1.236;2022-08-21T01:10:15;3.05;;;1.02;;
34767;SDS011;21755;43.608;1.236;2022-08-21T01:12:42;1.80;;;0.90;;
34767;SDS011;21755;43.608;1.236;2022-08-21T01:15:09;6.43;;;0.90;;
34767;SDS011;21755;43.608;1.236;2022-08-21T01:17:39;0.93;;;0.70;;
34767;SDS011;21755;43.608;1.236;2022-08-21T01:20:06;2.65;;;0.98;;
34767;SDS011;21755;43.608;1.236;2022-08-21T01:22:34;5.10;;;0.90;;
34767;SDS011;21755;43.608;1.236;2022-08-21T01:25:00;3.17;;;0.63;;
34767;SDS011;21755;43.608;1.236;2022-08-21T01:27:29;3.67;;;0.85;;
34767;SDS011;21755;43.608;1.236;2022-08-21T01:29:57;1.00;;;0.70;;
34767;SDS011;21755;43.608;1.236;2022-08-21T01:32:26;1.38;;;0.90;;
34767;SDS011;21755;43.608;1.236;2022-08-21T01:34:53;1.35;;;0.82;;
34767;SDS011;21755;43.608;1.236;2022-08-21T01:37:20;0.93;;;0.52;;
34767;SDS011;21755;43.608;1.236;2022-08-21T01:39:46;1.00;;;0.80;;
34767;SDS011;21755;43.608;1.236;2022-08-21T01:42:13;1.80;;;0.73;;
34767;SDS011;21755;43.608;1.236;2022-08-21T01:44:39;3.35;;;0.70;;
34767;SDS011;21755;43.608;1.236;2022-08-21T01:47:06;1.95;;;0.88;;
34767;SDS011;21755;43.608;1.236;2022-08-21T01:49:34;1.23;;;0.80;;
34767;SDS011;21755;43.608;1.236;2022-08-21T01:52:02;3.65;;;0.80;;
34767;SDS011;21755;43.608;1.236;2022-08-21T01:54:29;4.25;;;0.68;;
34767;SDS011;21755;43.608;1.236;2022-08-21T01:56:56;1.00;;;0.82;;
34767;SDS011;21755;43.608;1.236;2022-08-21T01:59:23;2.70;;;0.93;;
34767;SDS011;21755;43.608;1.236;2022-08-21T02:01:49;2.63;;;0.60;;
34767;SDS011;21755;43.608;1.236;2022-08-21T02:04:16;1.27;;;0.73;;
34767;SDS011;21755;43.608;1.236;2022-08-21T02:06:42;0.95;;;0.73;;
34767;SDS011;21755;43.608;1.236;2022-08-21T02:09:09;3.42;;;0.80;;
34767;SDS011;21755;43.608;1.236;2022-08-21T02:11:36;4.20;;;0.70;;
34767;SDS011;21755;43.608;1.236;2022-08-21T02:14:06;2.20;;;0.90;;
34767;SDS011;21755;43.608;1.236;2022-08-21T02:16:37;2.13;;;0.73;;
34767;SDS011;21755;43.608;1.236;2022-08-21T02:19:03;3.47;;;0.90;;
34767;SDS011;21755;43.608;1.236;2022-08-21T02:21:30;1.65;;;0.70;;
34767;SDS011;21755;43.608;1.236;2022-08-21T02:23:56;0.90;;;0.77;;
34767;SDS011;21755;43.608;1.236;2022-08-21T02:26:22;0.90;;;0.63;;
34767;SDS011;21755;43.608;1.236;2022-08-21T02:28:48;0.80;;;0.80;;
34767;SDS011;21755;43.608;1.236;2022-08-21T02:31:14;5.55;;;0.95;;
34767;SDS011;21755;43.608;1.236;2022-08-21T02:33:40;2.30;;;0.80;;
34767;SDS011;21755;43.608;1.236;2022-08-21T02:36:06;1.63;;;0.68;;
34767;SDS011;21755;43.608;1.236;2022-08-21T02:38:33;3.97;;;0.90;;
34767;SDS011;21755;43.608;1.236;2022-08-21T02:41:07;2.83;;;0.73;;
34767;SDS011;21755;43.608;1.236;2022-08-21T02:43:41;4.93;;;0.75;;
34767;SDS011;21755;43.608;1.236;2022-08-21T02:46:08;1.33;;;0.90;;
34767;SDS011;21755;43.608;1.236;2022-08-21T02:48:35;2.45;;;0.75;;
34767;SDS011;21755;43.608;1.236;2022-08-21T02:51:06;5.30;;;1.10;;
34767;SDS011;21755;43.608;1.236;2022-08-21T02:53:37;2.75;;;0.80;;
34767;SDS011;21755;43.608;1.236;2022-08-21T02:56:05;0.77;;;0.77;;
34767;SDS011;21755;43.608;1.236;2022-08-21T02:58:35;0.90;;;0.77;;
34767;SDS011;21755;43.608;1.236;2022-08-21T03:01:04;4.25;;;0.95;;
34767;SDS011;21755;43.608;1.236;2022-08-21T03:03:34;1.83;;;0.70;;
34767;SDS011;21755;43.608;1.236;2022-08-21T03:06:02;3.88;;;0.90;;
34767;SDS011;21755;43.608;1.236;2022-08-21T03:08:29;1.85;;;0.73;;
34767;SDS011;21755;43.608;1.236;2022-08-21T03:10:55;1.13;;;0.63;;
34767;SDS011;21755;43.608;1.236;2022-08-21T03:13:22;1.80;;;0.80;;
34767;SDS011;21755;43.608;1.236;2022-08-21T03:15:49;1.40;;;0.65;;
34767;SDS011;21755;43.608;1.236;2022-08-21T03:18:15;2.38;;;0.70;;
34767;SDS011;21755;43.608;1.236;2022-08-21T03:20:42;1.83;;;0.90;;
34767;SDS011;21755;43.608;1.236;2022-08-21T03:23:10;5.55;;;0.82;;
34767;SDS011;21755;43.608;1.236;2022-08-21T03:25:37;1.58;;;0.70;;
34767;SDS011;21755;43.608;1.236;2022-08-21T03:28:04;0.50;;;0.50;;
34767;SDS011;21755;43.608;1.236;2022-08-21T03:30:32;1.02;;;0.93;;
34767;SDS011;21755;43.608;1.236;2022-08-21T03:32:58;1.08;;;0.80;;
34767;SDS011;21755;43.608;1.236;2022-08-21T03:35:26;1.10;;;0.82;;
34767;SDS011;21755;43.608;1.236;2022-08-21T03:37:53;7.50;;;1.00;;
34767;SDS011;21755;43.608;1.236;2022-08-21T03:40:20;1.23;;;0.80;;
34767;SDS011;21755;43.608;1.236;2022-08-21T03:42:49;0.95;;;0.60;;
34767;SDS011;21755;43.608;1.236;2022-08-21T03:45:16;0.95;;;0.70;;
34767;SDS011;21755;43.608;1.236;2022-08-21T03:47:58;0.90;;;0.80;;
34767;SDS011;21755;43.608;1.236;2022-08-21T03:50:28;2.28;;;0.65;;
34767;SDS011;21755;43.608;1.236;2022-08-21T03:52:57;2.85;;;0.80;;
34767;SDS011;21755;43.608;1.236;2022-08-21T03:55:24;1.63;;;0.60;;
34767;SDS011;21755;43.608;1.236;2022-08-21T03:57:50;1.92;;;0.73;;
34767;SDS011;21755;43.608;1.236;2022-08-21T04:00:18;1.48;;;0.85;;
34767;SDS011;21755;43.608;1.236;2022-08-21T04:02:45;1.98;;;0.90;;
34767;SDS011;21755;43.608;1.236;2022-08-21T04:05:13;7.22;;;0.90;;
34767;SDS011;21755;43.608;1.236;2022-08-21T04:07:52;18.45;;;1.80;;
34767;SDS011;21755;43.608;1.236;2022-08-21T04:10:20;4.60;;;0.90;;
34767;SDS011;21755;43.608;1.236;2022-08-21T04:12:46;2.60;;;0.90;;
34767;SDS011;21755;43.608;1.236;2022-08-21T04:15:12;3.78;;;0.85;;
34767;SDS011;21755;43.608;1.236;2022-08-21T04:17:38;5.00;;;1.27;;
34767;SDS011;21755;43.608;1.236;2022-08-21T04:20:04;2.88;;;1.00;;
34767;SDS011;21755;43.608;1.236;2022-08-21T04:22:30;1.83;;;0.73;;
34767;SDS011;21755;43.608;1.236;2022-08-21T04:24:56;1.33;;;0.73;;
34767;SDS011;21755;43.608;1.236;2022-08-21T04:27:22;1.05;;;0.88;;
34767;SDS011;21755;43.608;1.236;2022-08-21T04:29:48;1.15;;;0.80;;
34767;SDS011;21755;43.608;1.236;2022-08-21T04:32:20;1.05;;;0.80;;
34767;SDS011;21755;43.608;1.236;2022-08-21T04:34:49;3.17;;;1.15;;
34767;SDS011;21755;43.608;1.236;2022-08-21T04:37:15;2.38;;;1.00;;
34767;SDS011;21755;43.608;1.236;2022-08-21T04:39:42;1.30;;;0.85;;
34767;SDS011;21755;43.608;1.236;2022-08-21T04:42:08;1.15;;;0.82;;
34767;SDS011;21755;43.608;1.236;2022-08-21T04:44:34;0.70;;;0.70;;
34767;SDS011;21755;43.608;1.236;2022-08-21T04:47:00;7.95;;;1.13;;
34767;SDS011;21755;43.608;1.236;2022-08-21T04:49:26;4.28;;;1.08;;
34767;SDS011;21755;43.608;1.236;2022-08-21T04:51:52;2.13;;;0.80;;
34767;SDS011;21755;43.608;1.236;2022-08-21T04:54:19;2.88;;;1.02;;
34767;SDS011;21755;43.608;1.236;2022-08-21T04:56:48;0.90;;;0.80;;
34767;SDS011;21755;43.608;1.236;2022-08-21T04:59:21;4.22;;;1.08;;
34767;SDS011;21755;43.608;1.236;2022-08-21T05:01:51;3.83;;;0.82;;
34767;SDS011;21755;43.608;1.236;2022-08-21T05:04:21;8.20;;;1.30;;
34767;SDS011;21755;43.608;1.236;2022-08-21T05:06:49;1.13;;;0.80;;
34767;SDS011;21755;43.608;1.236;2022-08-21T05:09:19;1.38;;;0.90;;
34767;SDS011;21755;43.608;1.236;2022-08-21T05:11:45;4.97;;;1.05;;
34767;SDS011;21755;43.608;1.236;2022-08-21T05:14:14;1.75;;;0.90;;
34767;SDS011;21755;43.608;1.236;2022-08-21T05:16:41;3.03;;;0.90;;
34767;SDS011;21755;43.608;1.236;2022-08-21T05:19:09;1.50;;;0.90;;
34767;SDS011;21755;43.608;1.236;2022-08-21T05:21:35;1.60;;;0.85;;
34767;SDS011;21755;43.608;1.236;2022-08-21T05:24:03;2.20;;;1.23;;
34767;SDS011;21755;43.608;1.236;2022-08-21T05:26:29;0.98;;;0.88;;
34767;SDS011;21755;43.608;1.236;2022-08-21T05:28:55;0.60;;;0.60;;
34767;SDS011;21755;43.608;1.236;2022-08-21T05:31:21;1.20;;;1.02;;
34767;SDS011;21755;43.608;1.236;2022-08-21T05:33:47;1.00;;;0.90;;
34767;SDS011;21755;43.608;1.236;2022-08-21T05:36:14;1.92;;;0.88;;
34767;SDS011;21755;43.608;1.236;2022-08-21T05:38:40;1.65;;;0.90;;
34767;SDS011;21755;43.608;1.236;2022-08-21T05:41:06;2.75;;;0.73;;
34767;SDS011;21755;43.608;1.236;2022-08-21T05:43:32;1.73;;;1.05;;
34767;SDS011;21755;43.608;1.236;2022-08-21T05:46:02;3.60;;;0.95;;
34767;SDS011;21755;43.608;1.236;2022-08-21T05:48:29;0.77;;;0.70;;
34767;SDS011;21755;43.608;1.236;2022-08-21T05:50:56;1.48;;;0.77;;
34767;SDS011;21755;43.608;1.236;2022-08-21T05:53:23;1.95;;;0.70;;
34767;SDS011;21755;43.608;1.236;2022-08-21T05:55:50;3.65;;;1.40;;
34767;SDS011;21755;43.608;1.236;2022-08-21T05:58:18;2.17;;;1.10;;
34767;SDS011;21755;43.608;1.236;2022-08-21T06:00:46;1.13;;;0.80;;
34767;SDS011;21755;43.608;1.236;2022-08-21T06:03:21;3.72;;;0.93;;
34767;SDS011;21755;43.608;1.236;2022-08-21T06:05:49;2.03;;;0.80;;
34767;SDS011;21755;43.608;1.236;2022-08-21T06:08:16;2.35;;;0.85;;
34767;SDS011;21755;43.608;1.236;2022-08-21T06:10:43;1.88;;;1.17;;
34767;SDS011;21755;43.608;1.236;2022-08-21T06:13:09;1.30;;;0.80;;
34767;SDS011;21755;43.608;1.236;2022-08-21T06:15:36;3.35;;;0.80;;
34767;SDS011;21755;43.608;1.236;2022-08-21T06:18:02;1.67;;;0.90;;
34767;SDS011;21755;43.608;1.236;2022-08-21T06:20:28;0.95;;;0.82;;
34767;SDS011;21755;43.608;1.236;2022-08-21T06:22:54;1.85;;;0.90;;
34767;SDS011;21755;43.608;1.236;2022-08-21T06:25:20;2.22;;;0.93;;
34767;SDS011;21755;43.608;1.236;2022-08-21T06:27:46;1.25;;;1.08;;
34767;SDS011;21755;43.608;1.236;2022-08-21T06:30:12;3.60;;;0.80;;
34767;SDS011;21755;43.608;1.236;2022-08-21T06:32:39;2.28;;;0.85;;
34767;SDS011;21755;43.608;1.236;2022-08-21T06:35:05;1.05;;;0.93;;
34767;SDS011;21755;43.608;1.236;2022-08-21T06:37:31;3.15;;;1.27;;
34767;SDS011;21755;43.608;1.236;2022-08-21T06:39:58;3.80;;;1.05;;
34767;SDS011;21755;43.608;1.236;2022-08-21T06:42:24;1.65;;;0.90;;
34767;SDS011;21755;43.608;1.236;2022-08-21T06:44:51;2.05;;;0.80;;
34767;SDS011;21755;43.608;1.236;2022-08-21T06:47:17;1.10;;;1.00;;
34767;SDS011;21755;43.608;1.236;2022-08-21T06:49:43;1.88;;;1.10;;
34767;SDS011;21755;43.608;1.236;2022-08-21T06:52:10;3.03;;;0.95;;
34767;SDS011;21755;43.608;1.236;2022-08-21T06:54:38;1.10;;;1.00;;
34767;SDS011;21755;43.608;1.236;2022-08-21T06:57:05;3.03;;;1.20;;
34767;SDS011;21755;43.608;1.236;2022-08-21T06:59:31;1.75;;;0.93;;
34767;SDS011;21755;43.608;1.236;2022-08-21T07:01:57;1.65;;;0.95;;
34767;SDS011;21755;43.608;1.236;2022-08-21T07:04:24;3.42;;;1.08;;
34767;SDS011;21755;43.608;1.236;2022-08-21T07:06:50;0.80;;;0.80;;
34767;SDS011;21755;43.608;1.236;2022-08-21T07:09:16;3.15;;;1.13;;
34767;SDS011;21755;43.608;1.236;2022-08-21T07:11:50;1.17;;;0.90;;
34767;SDS011;21755;43.608;1.236;2022-08-21T07:14:18;2.33;;;0.88;;
34767;SDS011;21755;43.608;1.236;2022-08-21T07:16:44;1.10;;;0.90;;
34767;SDS011;21755;43.608;1.236;2022-08-21T07:19:10;1.13;;;1.00;;
34767;SDS011;21755;43.608;1.236;2022-08-21T07:21:36;1.70;;;1.05;;
34767;SDS011;21755;43.608;1.236;2022-08-21T07:24:02;0.95;;;0.90;;
34767;SDS011;21755;43.608;1.236;2022-08-21T07:26:28;1.00;;;0.90;;
34767;SDS011;21755;43.608;1.236;2022-08-21T07:28:54;2.80;;;1.00;;
34767;SDS011;21755;43.608;1.236;2022-08-21T07:31:21;4.60;;;0.90;;
34767;SDS011;21755;43.608;1.236;2022-08-21T07:33:48;2.55;;;1.10;;
34767;SDS011;21755;43.608;1.236;2022-08-21T07:36:14;2.42;;;0.82;;
34767;SDS011;21755;43.608;1.236;2022-08-21T07:38:40;2.03;;;0.98;;
34767;SDS011;21755;43.608;1.236;2022-08-21T07:41:09;1.17;;;1.08;;
34767;SDS011;21755;43.608;1.236;2022-08-21T07:43:55;2.45;;;1.00;;
34767;SDS011;21755;43.608;1.236;2022-08-21T07:46:22;2.03;;;1.10;;
34767;SDS011;21755;43.608;1.236;2022-08-21T07:48:49;2.75;;;1.20;;
34767;SDS011;21755;43.608;1.236;2022-08-21T07:51:15;1.73;;;1.33;;
34767;SDS011;21755;43.608;1.236;2022-08-21T07:53:42;1.85;;;1.30;;
34767;SDS011;21755;43.608;1.236;2022-08-21T07:56:14;1.23;;;1.05;;
34767;SDS011;21755;43.608;1.236;2022-08-21T07:58:41;3.03;;;1.13;;
34767;SDS011;21755;43.608;1.236;2022-08-21T08:01:07;1.10;;;1.00;;
34767;SDS011;21755;43.608;1.236;2022-08-21T08:03:33;2.13;;;1.15;;
34767;SDS011;21755;43.608;1.236;2022-08-21T08:05:59;2.15;;;1.23;;
34767;SDS011;21755;43.608;1.236;2022-08-21T08:08:25;1.10;;;1.05;;
34767;SDS011;21755;43.608;1.236;2022-08-21T08:10:52;1.42;;;1.15;;
34767;SDS011;21755;43.608;1.236;2022-08-21T08:13:19;4.43;;;1.25;;
34767;SDS011;21755;43.608;1.236;2022-08-21T08:15:45;4.07;;;1.30;;
34767;SDS011;21755;43.608;1.236;2022-08-21T08:18:11;1.52;;;1.38;;
34767;SDS011;21755;43.608;1.236;2022-08-21T08:20:37;2.63;;;1.00;;
34767;SDS011;21755;43.608;1.236;2022-08-21T08:23:03;3.60;;;1.20;;
34767;SDS011;21755;43.608;1.236;2022-08-21T08:25:29;1.05;;;0.80;;
34767;SDS011;21755;43.608;1.236;2022-08-21T08:27:55;1.75;;;1.20;;
34767;SDS011;21755;43.608;1.236;2022-08-21T08:30:21;2.88;;;0.82;;
34767;SDS011;21755;43.608;1.236;2022-08-21T08:32:49;1.15;;;1.05;;
34767;SDS011;21755;43.608;1.236;2022-08-21T08:35:15;2.88;;;1.45;;
34767;SDS011;21755;43.608;1.236;2022-08-21T08:37:41;2.40;;;0.98;;
34767;SDS011;21755;43.608;1.236;2022-08-21T08:40:14;2.15;;;1.17;;
34767;SDS011;21755;43.608;1.236;2022-08-21T08:42:47;1.27;;;1.13;;
34767;SDS011;21755;43.608;1.236;2022-08-21T08:45:16;1.20;;;0.90;;
34767;SDS011;21755;43.608;1.236;2022-08-21T08:47:57;0.70;;;0.70;;
34767;SDS011;21755;43.608;1.236;2022-08-21T08:50:36;5.15;;;0.90;;
34767;SDS011;21755;43.608;1.236;2022-08-21T08:53:27;3.28;;;1.20;;
34767;SDS011;21755;43.608;1.236;2022-08-21T08:55:58;3.03;;;1.10;;
34767;SDS011;21755;43.608;1.236;2022-08-21T08:58:31;3.90;;;1.10;;
34767;SDS011;21755;43.608;1.236;2022-08-21T09:01:03;1.48;;;0.98;;
34767;SDS011;21755;43.608;1.236;2022-08-21T09:03:36;1.45;;;1.00;;
34767;SDS011;21755;43.608;1.236;2022-08-21T09:15:09;1.25;;;0.98;;
34767;SDS011;21755;43.608;1.236;2022-08-21T09:20:11;0.98;;;0.70;;
34767;SDS011;21755;43.608;1.236;2022-08-21T09:27:51;1.00;;;0.90;;
34767;SDS011;21755;43.608;1.236;2022-08-21T09:30:17;0.70;;;0.70;;
34767;SDS011;21755;43.608;1.236;2022-08-21T09:32:50;0.60;;;0.60;;
34767;SDS011;21755;43.608;1.236;2022-08-21T09:35:17;2.97;;;0.90;;
34767;SDS011;21755;43.608;1.236;2022-08-21T09:42:59;4.78;;;0.98;;
34767;SDS011;21755;43.608;1.236;2022-08-21T09:45:42;1.23;;;0.95;;
34767;SDS011;21755;43.608;1.236;2022-08-21T09:48:20;2.53;;;0.93;;
34767;SDS011;21755;43.608;1.236;2022-08-21T09:50:49;0.77;;;0.77;;
34767;SDS011;21755;43.608;1.236;2022-08-21T09:53:20;6.75;;;0.88;;
34767;SDS011;21755;43.608;1.236;2022-08-21T09:55:55;0.80;;;0.80;;
34767;SDS011;21755;43.608;1.236;2022-08-21T09:58:44;0.88;;;0.57;;
34767;SDS011;21755;43.608;1.236;2022-08-21T10:01:15;1.10;;;1.00;;
34767;SDS011;21755;43.608;1.236;2022-08-21T10:03:46;5.97;;;0.95;;
34767;SDS011;21755;43.608;1.236;2022-08-21T10:06:21;1.13;;;0.70;;
34767;SDS011;21755;43.608;1.236;2022-08-21T10:08:49;1.50;;;0.80;;
34767;SDS011;21755;43.608;1.236;2022-08-21T10:11:16;1.13;;;1.02;;
34767;SDS011;21755;43.608;1.236;2022-08-21T10:16:49;0.73;;;0.70;;
34767;SDS011;21755;43.608;1.236;2022-08-21T10:25:23;0.57;;;0.57;;
34767;SDS011;21755;43.608;1.236;2022-08-21T10:28:05;1.83;;;0.65;;
34767;SDS011;21755;43.608;1.236;2022-08-21T10:30:46;0.60;;;0.60;;
34767;SDS011;21755;43.608;1.236;2022-08-21T10:33:22;1.98;;;0.52;;
34767;SDS011;21755;43.608;1.236;2022-08-21T10:36:14;0.95;;;0.70;;
34767;SDS011;21755;43.608;1.236;2022-08-21T10:38:52;1.45;;;0.50;;
34767;SDS011;21755;43.608;1.236;2022-08-21T10:47:10;0.80;;;0.50;;
34767;SDS011;21755;43.608;1.236;2022-08-21T10:49:43;1.20;;;0.80;;
34767;SDS011;21755;43.608;1.236;2022-08-21T10:55:14;0.60;;;0.60;;
34767;SDS011;21755;43.608;1.236;2022-08-21T10:57:54;0.70;;;0.60;;
34767;SDS011;21755;43.608;1.236;2022-08-21T11:00:24;0.60;;;0.60;;
34767;SDS011;21755;43.608;1.236;2022-08-21T11:03:11;0.70;;;0.70;;
34767;SDS011;21755;43.608;1.236;2022-08-21T11:05:55;1.73;;;1.10;;
34767;SDS011;21755;43.608;1.236;2022-08-21T11:08:49;1.25;;;1.17;;
34767;SDS011;21755;43.608;1.236;2022-08-21T11:11:35;1.92;;;0.50;;
34767;SDS011;21755;43.608;1.236;2022-08-21T11:14:13;0.73;;;0.60;;
34767;SDS011;21755;43.608;1.236;2022-08-21T11:16:53;0.70;;;0.63;;
34767;SDS011;21755;43.608;1.236;2022-08-21T11:19:48;1.67;;;0.70;;
34767;SDS011;21755;43.608;1.236;2022-08-21T11:25:13;1.17;;;0.60;;
34767;SDS011;21755;43.608;1.236;2022-08-21T11:30:15;0.60;;;0.60;;
34767;SDS011;21755;43.608;1.236;2022-08-21T11:35:38;2.40;;;0.80;;
34767;SDS011;21755;43.608;1.236;2022-08-21T11:38:27;0.57;;;0.57;;
34767;SDS011;21755;43.608;1.236;2022-08-21T11:43:39;1.58;;;0.50;;
34767;SDS011;21755;43.608;1.236;2022-08-21T11:51:16;0.68;;;0.63;;
34767;SDS011;21755;43.608;1.236;2022-08-21T11:53:57;0.90;;;0.52;;
34767;SDS011;21755;43.608;1.236;2022-08-21T11:56:35;0.63;;;0.63;;
34767;SDS011;21755;43.608;1.236;2022-08-21T11:59:13;13.95;;;1.27;;
34767;SDS011;21755;43.608;1.236;2022-08-21T12:01:46;1.42;;;0.88;;
34767;SDS011;21755;43.608;1.236;2022-08-21T12:06:48;0.60;;;0.60;;
34767;SDS011;21755;43.608;1.236;2022-08-21T12:12:11;1.48;;;0.90;;
34767;SDS011;21755;43.608;1.236;2022-08-21T12:14:50;2.03;;;1.08;;
34767;SDS011;21755;43.608;1.236;2022-08-21T12:17:34;2.13;;;1.25;;
34767;SDS011;21755;43.608;1.236;2022-08-21T12:25:38;1.20;;;0.80;;
34767;SDS011;21755;43.608;1.236;2022-08-21T12:28:11;2.13;;;0.88;;
34767;SDS011;21755;43.608;1.236;2022-08-21T12:30:42;2.38;;;0.68;;
34767;SDS011;21755;43.608;1.236;2022-08-21T12:36:19;0.93;;;0.80;;
34767;SDS011;21755;43.608;1.236;2022-08-21T12:41:28;1.60;;;0.90;;
34767;SDS011;21755;43.608;1.236;2022-08-21T12:43:59;2.55;;;1.10;;
34767;SDS011;21755;43.608;1.236;2022-08-21T12:46:34;2.65;;;0.77;;
34767;SDS011;21755;43.608;1.236;2022-08-21T12:49:11;1.13;;;1.02;;
34767;SDS011;21755;43.608;1.236;2022-08-21T12:52:06;1.25;;;1.08;;
34767;SDS011;21755;43.608;1.236;2022-08-21T12:55:00;2.75;;;1.02;;
34767;SDS011;21755;43.608;1.236;2022-08-21T12:57:27;1.45;;;1.08;;
34767;SDS011;21755;43.608;1.236;2022-08-21T13:00:01;2.15;;;1.33;;
34767;SDS011;21755;43.608;1.236;2022-08-21T13:02:35;1.80;;;1.10;;
34767;SDS011;21755;43.608;1.236;2022-08-21T13:05:05;1.58;;;1.48;;
34767;SDS011;21755;43.608;1.236;2022-08-21T13:07:33;2.00;;;1.13;;
34767;SDS011;21755;43.608;1.236;2022-08-21T13:10:43;1.33;;;1.25;;
34767;SDS011;21755;43.608;1.236;2022-08-21T13:13:02;4.40;;;1.67;;
34767;SDS011;21755;43.608;1.236;2022-08-21T13:15:34;3.03;;;1.42;;
34767;SDS011;21755;43.608;1.236;2022-08-21T13:18:03;6.53;;;1.88;;
34767;SDS011;21755;43.608;1.236;2022-08-21T13:20:33;1.60;;;1.30;;
34767;SDS011;21755;43.608;1.236;2022-08-21T13:23:03;2.58;;;1.60;;
34767;SDS011;21755;43.608;1.236;2022-08-21T13:25:40;3.25;;;1.65;;
34767;SDS011;21755;43.608;1.236;2022-08-21T13:28:08;2.30;;;1.60;;
34767;SDS011;21755;43.608;1.236;2022-08-21T13:30:40;1.60;;;1.38;;
34767;SDS011;21755;43.608;1.236;2022-08-21T13:33:09;1.70;;;1.35;;
34767;SDS011;21755;43.608;1.236;2022-08-21T13:35:51;2.45;;;1.02;;
34767;SDS011;21755;43.608;1.236;2022-08-21T13:38:24;2.67;;;1.67;;
34767;SDS011;21755;43.608;1.236;2022-08-21T15:52:52;5.03;;;2.25;;
34767;SDS011;21755;43.608;1.236;2022-08-21T15:55:18;3.42;;;2.30;;
34767;SDS011;21755;43.608;1.236;2022-08-21T15:57:46;2.90;;;2.08;;
34767;SDS011;21755;43.608;1.236;2022-08-21T16:00:15;3.20;;;2.13;;
34767;SDS011;21755;43.608;1.236;2022-08-21T16:02:47;3.10;;;2.22;;
34767;SDS011;21755;43.608;1.236;2022-08-21T16:05:19;2.53;;;1.90;;
34767;SDS011;21755;43.608;1.236;2022-08-21T16:07:47;3.08;;;2.17;;
34767;SDS011;21755;43.608;1.236;2022-08-21T16:10:14;6.60;;;2.05;;
34767;SDS011;21755;43.608;1.236;2022-08-21T16:12:43;2.25;;;2.05;;
34767;SDS011;21755;43.608;1.236;2022-08-21T16:15:13;6.95;;;2.40;;
34767;SDS011;21755;43.608;1.236;2022-08-21T16:17:41;1.95;;;1.63;;
34767;SDS011;21755;43.608;1.236;2022-08-21T16:20:13;2.38;;;1.58;;
34767;SDS011;21755;43.608;1.236;2022-08-21T16:22:43;2.35;;;1.70;;
34767;SDS011;21755;43.608;1.236;2022-08-21T16:25:10;2.92;;;1.63;;
34767;SDS011;21755;43.608;1.236;2022-08-21T16:27:37;2.38;;;1.98;;
34767;SDS011;21755;43.608;1.236;2022-08-21T16:30:05;7.38;;;1.67;;
34767;SDS011;21755;43.608;1.236;2022-08-21T16:32:31;1.65;;;1.30;;
34767;SDS011;21755;43.608;1.236;2022-08-21T16:34:59;5.50;;;2.95;;
34767;SDS011;21755;43.608;1.236;2022-08-21T16:37:27;4.85;;;2.15;;
34767;SDS011;21755;43.608;1.236;2022-08-21T16:39:53;2.92;;;1.75;;
34767;SDS011;21755;43.608;1.236;2022-08-21T16:42:20;2.40;;;1.65;;
34767;SDS011;21755;43.608;1.236;2022-08-21T16:44:48;2.13;;;1.60;;
34767;SDS011;21755;43.608;1.236;2022-08-21T16:47:14;2.35;;;1.80;;
34767;SDS011;21755;43.608;1.236;2022-08-21T16:49:40;2.33;;;1.83;;
34767;SDS011;21755;43.608;1.236;2022-08-21T16:52:06;2.65;;;1.65;;
34767;SDS011;21755;43.608;1.236;2022-08-21T16:54:32;1.92;;;1.58;;
34767;SDS011;21755;43.608;1.236;2022-08-21T16:56:58;2.47;;;1.65;;
34767;SDS011;21755;43.608;1.236;2022-08-21T16:59:25;1.90;;;1.42;;
34767;SDS011;21755;43.608;1.236;2022-08-21T17:01:51;2.97;;;1.40;;
34767;SDS011;21755;43.608;1.236;2022-08-21T17:04:18;1.67;;;1.27;;
34767;SDS011;21755;43.608;1.236;2022-08-21T17:06:45;1.98;;;1.63;;
34767;SDS011;21755;43.608;1.236;2022-08-21T17:09:12;2.03;;;1.30;;
34767;SDS011;21755;43.608;1.236;2022-08-21T17:11:41;3.30;;;1.10;;
34767;SDS011;21755;43.608;1.236;2022-08-21T17:14:14;1.25;;;1.10;;
34767;SDS011;21755;43.608;1.236;2022-08-21T17:16:46;1.50;;;1.40;;
34767;SDS011;21755;43.608;1.236;2022-08-21T17:19:15;1.80;;;1.30;;
34767;SDS011;21755;43.608;1.236;2022-08-21T17:21:41;2.63;;;1.45;;
34767;SDS011;21755;43.608;1.236;2022-08-21T17:24:07;5.18;;;1.67;;
34767;SDS011;21755;43.608;1.236;2022-08-21T17:26:33;1.90;;;1.58;;
34767;SDS011;21755;43.608;1.236;2022-08-21T17:28:59;2.03;;;1.83;;
34767;SDS011;21755;43.608;1.236;2022-08-21T17:31:26;1.75;;;1.50;;
34767;SDS011;21755;43.608;1.236;2022-08-21T17:33:52;1.98;;;1.27;;
34767;SDS011;21755;43.608;1.236;2022-08-21T17:36:26;2.00;;;1.80;;
34767;SDS011;21755;43.608;1.236;2022-08-21T17:38:54;3.47;;;1.58;;
34767;SDS011;21755;43.608;1.236;2022-08-21T17:41:20;1.50;;;1.40;;
34767;SDS011;21755;43.608;1.236;2022-08-21T17:43:47;3.38;;;1.40;;
34767;SDS011;21755;43.608;1.236;2022-08-21T17:46:19;2.42;;;1.27;;
34767;SDS011;21755;43.608;1.236;2022-08-21T17:48:48;1.45;;;1.10;;
34767;SDS011;21755;43.608;1.236;2022-08-21T17:51:14;1.30;;;1.10;;
34767;SDS011;21755;43.608;1.236;2022-08-21T17:53:41;3.08;;;1.25;;
34767;SDS011;21755;43.608;1.236;2022-08-21T17:56:07;1.90;;;1.40;;
34767;SDS011;21755;43.608;1.236;2022-08-21T17:58:33;2.70;;;1.40;;
34767;SDS011;21755;43.608;1.236;2022-08-21T18:01:00;3.40;;;1.20;;
34767;SDS011;21755;43.608;1.236;2022-08-21T18:05:59;2.50;;;1.23;;
34767;SDS011;21755;43.608;1.236;2022-08-21T18:08:25;3.67;;;1.20;;
34767;SDS011;21755;43.608;1.236;2022-08-21T18:10:51;2.05;;;1.63;;
34767;SDS011;21755;43.608;1.236;2022-08-21T18:13:21;2.55;;;1.50;;
34767;SDS011;21755;43.608;1.236;2022-08-21T18:15:51;1.88;;;1.33;;
34767;SDS011;21755;43.608;1.236;2022-08-21T18:18:18;1.65;;;1.55;;
34767;SDS011;21755;43.608;1.236;2022-08-21T18:20:45;3.88;;;2.13;;
34767;SDS011;21755;43.608;1.236;2022-08-21T18:23:12;2.13;;;1.67;;
34767;SDS011;21755;43.608;1.236;2022-08-21T18:25:39;3.15;;;1.42;;
34767;SDS011;21755;43.608;1.236;2022-08-21T18:28:08;2.30;;;1.38;;